Time;durP1;ratioP1;P1;durP2;ratioP2;P2;SDS_P1;SDS_P2;PMS_P1;PMS_P2;Temp;Humidity;BMP_temperature;BMP_pressure;BME280_temperature;BME280_humidity;BME280_pressure;Samples;Min_cycle;Max_cycle;Signal;HPM_P1;HPM_P2
2023/01/22 00:02:03;;;;;;;14.13;9.63;;;0.50;99.90;;;;;;5084006;28;20091;-88
2023/01/22 00:04:29;;;;;;;16.13;9.38;;;0.50;99.90;;;;;;5085312;28;20036;-89
2023/01/22 00:06:55;;;;;;;16.85;9.85;;;0.50;99.90;;;;;;5087132;28;20039;-90
2023/01/22 00:09:21;;;;;;;15.82;9.85;;;0.40;99.90;;;;;;5072254;28;20032;-91
2023/01/22 00:11:50;;;;;;;13.73;9.13;;;0.40;99.90;;;;;;5067088;28;20040;-90
2023/01/22 00:14:19;;;;;;;19.77;9.77;;;0.40;99.90;;;;;;5045324;28;20280;-89
2023/01/22 00:16:44;;;;;;;15.50;9.80;;;0.30;99.90;;;;;;5051310;28;20041;-89
2023/01/22 00:19:10;;;;;;;18.52;10.82;;;0.20;99.90;;;;;;5044878;28;20036;-89
2023/01/22 00:21:36;;;;;;;15.85;9.40;;;0.20;99.90;;;;;;5029485;28;20055;-89
2023/01/22 00:24:02;;;;;;;15.23;9.70;;;0.10;99.90;;;;;;5046830;28;20051;-89
2023/01/22 00:26:30;;;;;;;18.15;9.60;;;0.00;99.90;;;;;;5036160;28;20041;-89
2023/01/22 00:28:56;;;;;;;16.75;10.48;;;-0.10;99.90;;;;;;5025877;28;20127;-92
2023/01/22 00:31:22;;;;;;;19.05;9.73;;;0.00;99.90;;;;;;5030271;28;20100;-89
2023/01/22 00:33:48;;;;;;;20.30;11.63;;;-0.20;99.90;;;;;;5036206;28;20276;-89
2023/01/22 00:36:19;;;;;;;19.83;11.40;;;-0.20;99.90;;;;;;5017901;28;20318;-89
2023/01/22 00:38:45;;;;;;;21.98;12.38;;;-0.10;99.90;;;;;;5030963;28;20063;-89
2023/01/22 00:41:12;;;;;;;23.48;13.32;;;0.00;99.90;;;;;;5062273;28;20092;-90
2023/01/22 00:43:39;;;;;;;24.15;12.73;;;-0.10;99.90;;;;;;5033890;28;20143;-89
2023/01/22 00:46:06;;;;;;;26.70;14.35;;;-0.20;99.90;;;;;;5045936;28;20044;-90
2023/01/22 00:48:32;;;;;;;24.65;13.43;;;-0.40;99.90;;;;;;5059119;28;20048;-90
2023/01/22 00:50:57;;;;;;;26.77;13.93;;;-0.40;99.90;;;;;;5045240;28;20086;-90
2023/01/22 00:53:23;;;;;;;28.58;13.73;;;-0.20;99.90;;;;;;5043286;28;20483;-90
2023/01/22 00:55:54;;;;;;;27.60;14.13;;;-0.10;99.90;;;;;;5044664;28;20032;-89
2023/01/22 00:58:20;;;;;;;28.02;14.95;;;-0.40;99.90;;;;;;5045503;28;20036;-89
2023/01/22 01:00:46;;;;;;;32.22;15.52;;;-0.50;99.90;;;;;;5048644;28;20032;-89
2023/01/22 01:03:31;;;;;;;28.83;14.75;;;-0.30;99.90;;;;;;5045010;28;20153;-89
2023/01/22 01:05:58;;;;;;;31.30;15.63;;;-0.50;99.90;;;;;;5027311;28;20048;-90
2023/01/22 01:08:25;;;;;;;28.27;14.40;;;-0.50;99.90;;;;;;5028541;28;20217;-89
2023/01/22 01:10:55;;;;;;;26.52;15.07;;;-0.50;99.90;;;;;;5045359;28;20036;-89
2023/01/22 01:13:21;;;;;;;25.33;14.65;;;-0.40;99.90;;;;;;5052440;28;20144;-90
2023/01/22 01:15:47;;;;;;;28.42;14.77;;;-0.50;99.90;;;;;;5063502;28;20059;-89
2023/01/22 01:18:13;;;;;;;30.13;15.73;;;-0.30;99.90;;;;;;5063398;28;20411;-90
2023/01/22 01:20:39;;;;;;;29.50;15.15;;;-0.30;99.90;;;;;;5084732;28;20044;-89
2023/01/22 01:23:05;;;;;;;25.85;15.10;;;-0.50;99.90;;;;;;5085253;28;20043;-88
2023/01/22 01:25:31;;;;;;;27.02;14.68;;;-0.50;99.90;;;;;;5085718;28;20568;-90
2023/01/22 01:27:58;;;;;;;27.30;14.35;;;-0.50;99.90;;;;;;5084265;28;20044;-90
2023/01/22 01:30:24;;;;;;;28.85;14.85;;;-0.30;99.90;;;;;;5080762;28;20048;-90
2023/01/22 01:32:49;;;;;;;32.13;14.90;;;-0.40;99.90;;;;;;5065945;28;20043;-90
2023/01/22 01:35:15;;;;;;;25.42;14.30;;;-0.20;99.90;;;;;;5082932;28;20036;-90
2023/01/22 01:37:41;;;;;;;28.40;15.95;;;-0.50;99.90;;;;;;5064154;28;20274;-90
2023/01/22 01:40:08;;;;;;;29.65;14.77;;;-0.40;99.90;;;;;;5064543;28;20391;-90
2023/01/22 01:42:37;;;;;;;25.48;14.32;;;-0.60;99.90;;;;;;5051262;28;20044;-90
2023/01/22 01:45:21;;;;;;;26.85;14.60;;;-0.50;99.90;;;;;;5079484;28;20044;-90
2023/01/22 01:48:02;;;;;;;26.45;15.35;;;-0.70;99.90;;;;;;5081090;28;20036;-89
2023/01/22 01:50:28;;;;;;;28.70;15.80;;;-0.60;99.90;;;;;;5081435;28;20734;-90
2023/01/22 01:52:56;;;;;;;26.75;15.25;;;-0.50;99.90;;;;;;5063409;28;20089;-89
2023/01/22 01:55:27;;;;;;;28.73;15.57;;;-0.70;99.90;;;;;;5084509;28;20047;-90
2023/01/22 01:57:55;;;;;;;34.13;16.50;;;-0.60;99.90;;;;;;5084280;28;20055;-90
2023/01/22 02:00:21;;;;;;;32.05;16.63;;;-0.50;99.90;;;;;;5066513;28;20092;-89
2023/01/22 02:02:48;;;;;;;31.45;17.52;;;-0.60;99.90;;;;;;5062421;28;20047;-89
2023/01/22 02:05:13;;;;;;;33.60;16.77;;;-0.60;99.90;;;;;;5062857;28;20039;-90
2023/01/22 02:07:39;;;;;;;32.25;16.45;;;-0.40;99.90;;;;;;5064564;28;20086;-89
2023/01/22 02:10:05;;;;;;;31.88;15.98;;;-0.30;99.90;;;;;;5062232;28;20046;-90
2023/01/22 02:12:32;;;;;;;31.08;15.50;;;-0.50;99.90;;;;;;5080404;28;20440;-89
2023/01/22 02:15:02;;;;;;;28.65;15.38;;;-0.30;99.90;;;;;;5084878;28;20048;-90
2023/01/22 02:17:28;;;;;;;31.48;15.50;;;-0.10;99.90;;;;;;5081016;28;20055;-91
2023/01/22 02:19:54;;;;;;;29.00;15.70;;;-0.30;99.90;;;;;;5062338;28;20112;-90
2023/01/22 02:22:22;;;;;;;34.72;16.88;;;0.00;99.90;;;;;;5096477;28;20040;-90
2023/01/22 02:24:48;;;;;;;34.95;16.95;;;0.00;99.90;;;;;;5065118;28;20041;-89
2023/01/22 02:27:14;;;;;;;30.70;16.35;;;0.00;99.90;;;;;;5063441;28;20109;-90
2023/01/22 02:29:40;;;;;;;29.45;15.07;;;0.00;99.90;;;;;;5064802;28;20063;-90
2023/01/22 02:32:05;;;;;;;27.63;14.30;;;0.20;99.90;;;;;;5082468;28;20391;-91
2023/01/22 02:34:31;;;;;;;25.48;13.35;;;0.10;99.90;;;;;;5061791;28;20086;-90
2023/01/22 02:36:57;;;;;;;30.80;14.52;;;0.20;99.90;;;;;;5060461;28;20028;-90
2023/01/22 02:39:23;;;;;;;25.45;14.05;;;0.30;99.90;;;;;;5062909;28;20051;-90
2023/01/22 02:41:49;;;;;;;26.35;12.93;;;0.40;99.90;;;;;;5097637;28;20821;-89
2023/01/22 02:44:15;;;;;;;25.05;12.82;;;0.50;99.90;;;;;;5082789;28;20127;-90
2023/01/22 02:46:41;;;;;;;22.45;12.30;;;0.70;99.90;;;;;;5068133;28;20177;-91
2023/01/22 02:49:06;;;;;;;23.17;12.68;;;0.60;99.90;;;;;;5087229;28;20043;-90
2023/01/22 02:51:32;;;;;;;19.23;10.75;;;0.60;99.90;;;;;;5081613;28;20044;-89
2023/01/22 02:53:58;;;;;;;19.80;11.30;;;0.70;99.90;;;;;;5082794;28;20483;-90
2023/01/22 02:56:24;;;;;;;19.95;10.38;;;0.60;99.90;;;;;;5062562;28;20032;-89
2023/01/22 02:58:49;;;;;;;20.08;10.88;;;0.70;99.90;;;;;;5084572;28;20039;-91
2023/01/22 03:01:23;;;;;;;20.02;10.02;;;0.50;99.90;;;;;;5097183;28;20524;-90
2023/01/22 03:04:00;;;;;;;19.65;10.82;;;0.60;99.90;;;;;;5066497;28;20499;-89
2023/01/22 03:06:28;;;;;;;17.15;10.10;;;0.70;99.90;;;;;;5064748;28;20054;-90
2023/01/22 03:08:57;;;;;;;13.98;7.63;;;0.60;99.90;;;;;;5063811;28;20063;-89
2023/01/22 03:11:24;;;;;;;13.35;8.38;;;0.70;99.90;;;;;;5078103;28;20047;-90
2023/01/22 03:22:04;;;;;;;15.80;7.85;;;0.70;99.90;;;;;;5080908;28;20402;-89
2023/01/22 03:24:30;;;;;;;14.25;7.68;;;0.80;99.90;;;;;;5068212;28;20070;-89
2023/01/22 03:26:56;;;;;;;14.13;7.68;;;0.80;99.90;;;;;;5064552;28;20514;-89
2023/01/22 03:29:21;;;;;;;14.52;7.75;;;0.80;99.90;;;;;;5066376;28;20036;-90
2023/01/22 03:31:47;;;;;;;19.20;7.55;;;0.80;99.90;;;;;;5067861;28;20150;-89
2023/01/22 03:34:19;;;;;;;10.25;6.93;;;0.80;99.90;;;;;;5065642;28;20051;-90
2023/01/22 03:36:45;;;;;;;13.60;6.78;;;0.80;99.90;;;;;;5097206;28;20036;-90
2023/01/22 03:39:11;;;;;;;11.13;6.68;;;0.90;99.90;;;;;;5069823;28;20039;-89
2023/01/22 03:41:37;;;;;;;15.15;7.57;;;0.90;99.90;;;;;;5082950;28;20041;-91
2023/01/22 03:44:03;;;;;;;15.40;6.53;;;0.80;99.90;;;;;;5064035;28;20043;-90
2023/01/22 03:46:29;;;;;;;11.93;6.18;;;0.80;99.90;;;;;;5110283;27;20056;-89
2023/01/22 03:48:58;;;;;;;11.43;6.55;;;0.90;99.90;;;;;;5098633;28;20051;-89
2023/01/22 03:51:24;;;;;;;9.88;6.70;;;0.90;99.90;;;;;;5065778;28;20044;-89
2023/01/22 03:53:50;;;;;;;12.27;6.43;;;0.90;99.90;;;;;;5084157;28;20047;-89
2023/01/22 03:56:19;;;;;;;8.00;5.72;;;1.00;99.90;;;;;;5081879;28;20039;-90
2023/01/22 03:58:45;;;;;;;9.57;5.72;;;1.00;99.90;;;;;;5062971;28;20128;-90
2023/01/22 04:01:17;;;;;;;9.30;6.95;;;1.00;99.90;;;;;;5065145;28;20118;-89
2023/01/22 04:03:42;;;;;;;11.05;5.88;;;1.00;99.90;;;;;;5063040;28;20043;-89
2023/01/22 04:06:10;;;;;;;11.23;6.32;;;1.00;99.90;;;;;;5082516;28;20463;-89
2023/01/22 04:08:37;;;;;;;12.27;6.07;;;1.00;99.90;;;;;;5081247;28;20047;-89
2023/01/22 04:11:03;;;;;;;8.90;5.47;;;1.00;99.90;;;;;;5084379;28;20048;-89
2023/01/22 04:13:31;;;;;;;9.18;5.85;;;1.00;99.90;;;;;;5071456;28;20044;-89
2023/01/22 04:15:57;;;;;;;8.18;5.53;;;1.00;99.90;;;;;;5118557;27;20043;-89
2023/01/22 04:18:23;;;;;;;11.55;5.72;;;1.00;99.90;;;;;;5083215;28;20032;-88
2023/01/22 04:20:50;;;;;;;11.23;6.15;;;1.10;99.90;;;;;;5066939;28;20115;-89
2023/01/22 04:23:16;;;;;;;10.45;6.10;;;1.10;99.90;;;;;;5067335;28;20040;-89
2023/01/22 04:25:42;;;;;;;9.63;5.60;;;1.00;99.90;;;;;;5114610;27;20435;-88
2023/01/22 04:28:09;;;;;;;11.65;5.68;;;1.00;99.90;;;;;;5080566;28;20047;-89
2023/01/22 04:30:37;;;;;;;12.00;5.95;;;1.10;99.90;;;;;;5067065;28;20564;-90
2023/01/22 04:33:02;;;;;;;10.80;6.00;;;1.10;99.90;;;;;;5067475;28;20456;-89
2023/01/22 04:35:28;;;;;;;8.95;5.45;;;1.10;99.90;;;;;;5081042;28;20037;-89
2023/01/22 04:37:54;;;;;;;8.10;5.40;;;1.10;99.90;;;;;;5067198;28;20028;-89
2023/01/22 04:40:20;;;;;;;7.88;4.75;;;1.20;99.90;;;;;;5067280;28;20391;-89
2023/01/22 04:42:46;;;;;;;12.32;5.90;;;1.20;99.90;;;;;;5065116;28;20035;-89
2023/01/22 04:45:12;;;;;;;10.77;5.82;;;1.10;99.90;;;;;;5064266;28;20051;-89
2023/01/22 04:47:40;;;;;;;10.68;5.20;;;1.10;99.90;;;;;;5064235;28;20031;-89
2023/01/22 04:50:06;;;;;;;12.88;6.05;;;1.20;99.90;;;;;;5075534;28;20047;-89
2023/01/22 04:52:32;;;;;;;8.45;5.82;;;1.20;99.90;;;;;;5092754;28;20044;-89
2023/01/22 04:54:58;;;;;;;9.85;5.43;;;1.20;99.90;;;;;;5065927;28;20046;-89
2023/01/22 04:57:23;;;;;;;10.38;5.60;;;1.10;99.90;;;;;;5096267;27;20120;-89
2023/01/22 04:59:49;;;;;;;11.60;6.45;;;1.10;99.90;;;;;;5093973;28;20494;-89
2023/01/22 05:02:14;;;;;;;8.70;5.45;;;1.10;99.90;;;;;;5096026;27;20062;-89
2023/01/22 05:04:40;;;;;;;8.70;5.93;;;1.20;99.90;;;;;;5060832;28;20042;-89
2023/01/22 05:07:06;;;;;;;11.20;6.25;;;1.20;99.90;;;;;;5096820;28;20124;-89
2023/01/22 05:09:31;;;;;;;10.68;6.35;;;1.20;99.90;;;;;;5065668;28;20097;-88
2023/01/22 05:11:57;;;;;;;8.25;6.38;;;1.20;99.90;;;;;;5060580;28;20042;-89
2023/01/22 05:14:23;;;;;;;11.60;5.82;;;1.20;99.90;;;;;;5080759;28;20539;-89
2023/01/22 05:16:48;;;;;;;12.77;6.50;;;1.20;99.90;;;;;;5065805;28;20543;-89
2023/01/22 05:19:14;;;;;;;11.40;6.50;;;1.20;99.90;;;;;;5081666;28;20131;-89
2023/01/22 05:21:39;;;;;;;9.80;6.25;;;1.20;99.90;;;;;;5060335;28;20040;-89
2023/01/22 05:24:07;;;;;;;14.13;7.05;;;1.10;99.90;;;;;;5061776;28;20169;-89
2023/01/22 05:26:33;;;;;;;10.73;7.18;;;1.20;99.90;;;;;;5079164;28;20047;-89
2023/01/22 05:28:58;;;;;;;10.82;7.07;;;1.20;99.90;;;;;;5066395;28;20042;-89
2023/01/22 05:31:24;;;;;;;13.93;7.05;;;1.20;99.90;;;;;;5096119;28;20044;-89
2023/01/22 05:33:49;;;;;;;8.75;6.78;;;1.10;99.90;;;;;;5066784;28;20071;-90
2023/01/22 05:36:15;;;;;;;10.30;7.30;;;1.10;99.90;;;;;;5077362;28;20050;-88
2023/01/22 05:38:41;;;;;;;13.35;7.35;;;1.10;99.90;;;;;;5060481;28;20032;-83
2023/01/22 05:41:07;;;;;;;13.13;6.85;;;1.20;99.90;;;;;;5079457;28;20043;-84
2023/01/22 05:43:36;;;;;;;9.52;6.25;;;1.10;99.90;;;;;;5089049;27;20036;-84
2023/01/22 05:46:03;;;;;;;10.68;7.32;;;1.10;99.90;;;;;;5065049;28;20658;-84
2023/01/22 05:48:30;;;;;;;8.75;6.78;;;1.10;99.90;;;;;;5074463;28;20558;-84
2023/01/22 05:50:56;;;;;;;14.75;7.25;;;1.10;99.90;;;;;;5092457;28;20058;-84
2023/01/22 05:53:21;;;;;;;10.25;6.63;;;1.10;99.90;;;;;;5075616;28;20036;-84
2023/01/22 05:55:47;;;;;;;9.48;7.18;;;1.10;99.90;;;;;;5105505;27;20036;-85
2023/01/22 05:58:13;;;;;;;9.90;7.25;;;1.10;99.90;;;;;;5076794;28;20073;-84
2023/01/22 06:00:38;;;;;;;12.43;6.40;;;1.00;99.90;;;;;;5078582;28;20035;-85
2023/01/22 06:03:04;;;;;;;9.48;6.35;;;1.10;99.90;;;;;;5063854;28;20028;-84
2023/01/22 06:05:30;;;;;;;9.88;6.55;;;1.00;99.90;;;;;;5092356;28;20457;-84
2023/01/22 06:07:55;;;;;;;11.23;6.95;;;1.00;99.90;;;;;;5054158;28;20748;-83
2023/01/22 06:10:21;;;;;;;12.20;7.18;;;1.00;99.90;;;;;;5064225;28;20569;-84
2023/01/22 06:12:46;;;;;;;10.27;7.15;;;1.00;99.90;;;;;;5061258;28;20064;-84
2023/01/22 06:15:12;;;;;;;11.65;6.63;;;1.00;99.90;;;;;;5093997;28;20048;-84
2023/01/22 06:17:38;;;;;;;13.13;7.13;;;1.00;99.90;;;;;;5080001;28;20078;-84
2023/01/22 06:20:05;;;;;;;10.70;7.90;;;1.00;99.90;;;;;;5059364;28;20165;-84
2023/01/22 06:22:30;;;;;;;11.75;8.73;;;1.00;99.90;;;;;;5076888;28;20048;-84
2023/01/22 06:24:56;;;;;;;10.55;7.30;;;1.00;99.90;;;;;;5088620;28;20040;-85
2023/01/22 06:27:22;;;;;;;10.38;7.25;;;1.00;99.90;;;;;;5076060;28;20513;-85
2023/01/22 06:29:47;;;;;;;12.35;8.10;;;1.00;99.90;;;;;;5078178;28;20346;-89
2023/01/22 06:32:13;;;;;;;9.50;7.05;;;1.00;99.90;;;;;;5092265;28;20620;-90
2023/01/22 06:34:39;;;;;;;11.90;7.30;;;0.90;99.90;;;;;;5077363;28;20556;-89
2023/01/22 06:37:05;;;;;;;10.65;7.43;;;1.00;99.90;;;;;;5060570;28;20356;-89
2023/01/22 06:39:30;;;;;;;10.45;7.15;;;0.90;99.90;;;;;;5061528;28;20078;-88
2023/01/22 06:41:56;;;;;;;13.18;7.95;;;1.00;99.90;;;;;;5077716;28;20035;-89
2023/01/22 06:44:22;;;;;;;12.15;7.72;;;1.00;99.90;;;;;;5082453;28;20035;-90
2023/01/22 06:46:50;;;;;;;11.23;7.60;;;0.90;99.90;;;;;;5079655;28;20043;-89
2023/01/22 06:49:15;;;;;;;12.00;8.00;;;0.90;99.90;;;;;;5064743;28;20369;-89
2023/01/22 06:51:41;;;;;;;12.48;8.00;;;0.90;99.90;;;;;;5062565;28;20193;-89
2023/01/22 06:54:09;;;;;;;12.13;8.00;;;0.90;99.90;;;;;;5096685;28;20109;-89
2023/01/22 06:56:35;;;;;;;12.00;7.57;;;0.90;99.90;;;;;;5076051;28;20133;-89
2023/01/22 06:59:01;;;;;;;11.40;7.78;;;0.90;99.90;;;;;;5065038;28;20032;-89
2023/01/22 07:01:26;;;;;;;12.60;7.90;;;0.80;99.90;;;;;;5081920;28;20032;-89
2023/01/22 07:03:55;;;;;;;11.50;7.38;;;0.80;99.90;;;;;;5060853;28;20101;-89
2023/01/22 07:06:22;;;;;;;14.75;8.40;;;0.80;99.90;;;;;;5062091;28;20048;-88
2023/01/22 07:08:48;;;;;;;11.57;7.82;;;0.80;99.90;;;;;;5094448;28;20083;-88
2023/01/22 07:11:14;;;;;;;11.52;7.93;;;0.80;99.90;;;;;;5061819;28;20072;-89
2023/01/22 07:13:40;;;;;;;14.40;8.70;;;0.80;99.90;;;;;;5059855;28;20059;-90
2023/01/22 07:16:06;;;;;;;11.52;8.32;;;0.70;99.90;;;;;;5107178;27;20434;-89
2023/01/22 07:18:32;;;;;;;15.63;8.43;;;0.70;99.90;;;;;;5077564;28;20089;-89
2023/01/22 07:21:02;;;;;;;10.88;8.20;;;0.80;99.90;;;;;;5109738;28;20035;-88
2023/01/22 07:23:28;;;;;;;13.00;8.40;;;0.80;99.90;;;;;;5106546;28;20211;-89
2023/01/22 07:25:54;;;;;;;12.48;8.15;;;0.80;99.90;;;;;;5082109;28;20050;-88
2023/01/22 07:28:19;;;;;;;14.80;8.80;;;0.80;99.90;;;;;;5082306;28;20107;-88
2023/01/22 07:30:45;;;;;;;14.55;8.55;;;0.70;99.90;;;;;;5068434;28;20040;-86
2023/01/22 07:33:12;;;;;;;14.98;8.32;;;0.70;99.90;;;;;;5093977;28;20520;-88
2023/01/22 07:35:38;;;;;;;11.02;8.27;;;0.80;99.90;;;;;;5085054;28;20090;-87
2023/01/22 07:38:04;;;;;;;12.35;8.85;;;0.70;99.90;;;;;;5084351;28;20259;-89
2023/01/22 07:40:30;;;;;;;12.77;8.63;;;0.70;99.90;;;;;;5063277;28;20075;-89
2023/01/22 07:42:56;;;;;;;12.70;9.15;;;0.80;99.90;;;;;;5077898;28;20094;-89
2023/01/22 07:45:23;;;;;;;13.73;8.63;;;0.80;99.90;;;;;;5067703;28;20048;-87
2023/01/22 07:47:58;;;;;;;13.45;8.57;;;0.80;99.90;;;;;;5086451;28;20348;-89
2023/01/22 07:50:27;;;;;;;14.38;8.85;;;0.80;99.90;;;;;;5079704;28;20072;-88
2023/01/22 07:52:54;;;;;;;11.50;8.60;;;0.70;99.90;;;;;;5062657;28;20046;-88
2023/01/22 07:55:22;;;;;;;13.43;8.40;;;0.70;99.90;;;;;;5060766;28;20032;-88
2023/01/22 07:57:55;;;;;;;12.52;9.15;;;0.70;99.90;;;;;;5083206;28;20278;-89
2023/01/22 08:00:21;;;;;;;13.40;7.95;;;0.70;99.90;;;;;;5081544;28;20036;-88
2023/01/22 08:02:49;;;;;;;12.73;9.18;;;0.70;99.90;;;;;;5066813;28;20510;-89
2023/01/22 08:05:14;;;;;;;12.52;8.95;;;0.70;99.90;;;;;;5064543;28;20036;-88
2023/01/22 08:07:40;;;;;;;11.60;8.32;;;0.80;99.90;;;;;;5098458;27;20040;-89
2023/01/22 08:10:07;;;;;;;12.23;8.32;;;0.70;99.90;;;;;;5082944;28;20051;-89
2023/01/22 08:12:32;;;;;;;12.35;8.95;;;0.80;99.90;;;;;;5063789;28;20043;-88
2023/01/22 08:14:58;;;;;;;17.75;8.73;;;0.80;99.90;;;;;;5085087;28;20052;-88
2023/01/22 08:17:24;;;;;;;13.05;8.60;;;0.80;99.90;;;;;;5081916;28;20028;-89
2023/01/22 08:19:49;;;;;;;11.57;8.63;;;0.80;99.90;;;;;;5078586;28;20418;-89
2023/01/22 08:22:18;;;;;;;10.57;8.13;;;0.80;99.90;;;;;;5091584;28;20071;-89
2023/01/22 08:24:44;;;;;;;12.07;8.50;;;0.80;99.90;;;;;;5078204;28;20163;-88
2023/01/22 08:27:09;;;;;;;12.65;8.20;;;0.80;99.90;;;;;;5079048;28;20204;-89
2023/01/22 08:29:35;;;;;;;13.15;8.23;;;0.80;99.90;;;;;;5081173;28;20040;-89
2023/01/22 08:32:00;;;;;;;11.45;8.48;;;0.90;99.90;;;;;;5078232;28;20036;-89
2023/01/22 08:34:26;;;;;;;10.63;8.05;;;0.90;99.90;;;;;;5094601;27;20047;-90
2023/01/22 08:36:52;;;;;;;13.00;8.40;;;0.90;99.90;;;;;;5062335;28;20043;-90
2023/01/22 08:39:17;;;;;;;13.93;8.45;;;0.90;99.90;;;;;;5090417;28;20114;-89
2023/01/22 08:41:56;;;;;;;10.32;7.82;;;0.80;99.90;;;;;;5062716;28;20406;-89
2023/01/22 08:44:23;;;;;;;13.27;8.13;;;0.80;99.90;;;;;;5092375;28;20509;-88
2023/01/22 08:46:51;;;;;;;10.52;7.80;;;0.80;99.90;;;;;;5067797;28;20087;-90
2023/01/22 08:49:17;;;;;;;13.93;8.48;;;0.70;99.90;;;;;;5091145;28;20082;-87
2023/01/22 08:51:43;;;;;;;13.05;7.88;;;0.80;99.90;;;;;;5079913;28;20040;-88
2023/01/22 08:54:09;;;;;;;12.02;7.97;;;0.80;99.90;;;;;;5063013;28;20044;-89
2023/01/22 08:56:35;;;;;;;12.60;7.90;;;0.80;99.90;;;;;;5061664;28;20055;-89
2023/01/22 08:59:05;;;;;;;12.88;8.23;;;0.80;99.90;;;;;;5065675;28;20036;-89
2023/01/22 09:01:31;;;;;;;12.65;8.13;;;0.80;99.90;;;;;;5066303;28;20138;-89
2023/01/22 09:03:57;;;;;;;12.55;8.07;;;0.90;99.90;;;;;;5080467;28;20055;-89
2023/01/22 09:06:23;;;;;;;13.18;7.38;;;0.90;99.90;;;;;;5079563;28;20044;-88
2023/01/22 09:08:49;;;;;;;11.98;7.63;;;0.90;99.90;;;;;;5111218;27;20086;-89
2023/01/22 09:11:15;;;;;;;13.18;7.78;;;0.80;99.90;;;;;;5090459;28;20634;-88
2023/01/22 09:13:41;;;;;;;12.27;7.22;;;0.80;99.90;;;;;;5080187;28;20574;-89
2023/01/22 09:16:09;;;;;;;10.48;6.47;;;0.70;99.90;;;;;;5083014;28;20075;-89
2023/01/22 09:18:38;;;;;;;10.07;7.07;;;0.90;99.90;;;;;;5107217;27;20035;-89
2023/01/22 09:21:05;;;;;;;12.00;6.28;;;0.90;99.90;;;;;;5104909;27;20821;-89
2023/01/22 09:23:31;;;;;;;11.32;7.53;;;0.80;99.90;;;;;;5109314;27;20048;-89
2023/01/22 09:25:56;;;;;;;11.57;6.97;;;0.80;99.90;;;;;;5061200;28;20032;-89
2023/01/22 09:28:22;;;;;;;10.65;6.70;;;0.80;99.90;;;;;;5077190;28;20130;-89
2023/01/22 09:30:48;;;;;;;11.15;6.80;;;0.90;99.90;;;;;;5065924;28;20063;-89
2023/01/22 09:33:18;;;;;;;10.82;7.15;;;0.80;99.90;;;;;;5096419;28;20412;-88
2023/01/22 09:35:43;;;;;;;10.77;7.25;;;0.80;99.90;;;;;;5081987;28;20040;-89
2023/01/22 09:38:12;;;;;;;9.73;7.13;;;0.80;99.90;;;;;;5081049;28;20073;-88
2023/01/22 09:40:44;;;;;;;11.40;6.78;;;1.00;99.90;;;;;;5065211;28;20032;-89
2023/01/22 09:43:21;;;;;;;12.80;7.90;;;1.10;99.90;;;;;;5111119;27;20146;-88
2023/01/22 09:45:51;;;;;;;11.25;7.45;;;1.20;99.90;;;;;;5078373;28;20036;-88
2023/01/22 09:48:17;;;;;;;12.70;7.18;;;1.10;99.90;;;;;;5079943;28;20211;-88
2023/01/22 09:50:44;;;;;;;11.45;7.38;;;1.40;99.90;;;;;;5077146;28;20138;-88
2023/01/22 09:53:17;;;;;;;11.40;7.70;;;1.20;99.90;;;;;;5075183;28;20040;-89
2023/01/22 09:55:46;;;;;;;8.05;6.70;;;1.30;99.90;;;;;;5079466;28;20140;-89
2023/01/22 09:58:18;;;;;;;9.88;7.15;;;1.40;99.90;;;;;;5089706;28;20039;-89
2023/01/22 10:00:58;;;;;;;11.48;7.40;;;1.30;99.90;;;;;;5076011;28;20044;-89
2023/01/22 10:03:58;;;;;;;13.43;7.20;;;1.20;99.90;;;;;;5063334;28;20588;-89
2023/01/22 10:06:28;;;;;;;10.05;6.78;;;1.30;99.90;;;;;;5109737;27;20477;-88
2023/01/22 10:09:13;;;;;;;11.40;7.30;;;1.40;99.90;;;;;;5090510;28;20036;-89
2023/01/22 10:11:54;;;;;;;8.93;7.28;;;1.30;99.90;;;;;;5077003;28;20128;-89
2023/01/22 10:14:22;;;;;;;12.27;7.60;;;1.30;99.90;;;;;;5070271;28;20848;-89
2023/01/22 10:16:48;;;;;;;14.50;7.70;;;1.40;99.90;;;;;;5062521;28;20448;-90
2023/01/22 10:19:23;;;;;;;11.70;7.57;;;1.40;99.90;;;;;;5061222;28;20127;-89
2023/01/22 10:22:03;;;;;;;11.43;7.38;;;1.50;99.90;;;;;;5043977;28;20265;-89
2023/01/22 10:24:29;;;;;;;11.82;7.50;;;1.60;99.90;;;;;;5059348;28;20173;-90
2023/01/22 10:26:57;;;;;;;12.35;8.30;;;1.60;99.90;;;;;;5054307;28;20489;-89
2023/01/22 10:29:32;;;;;;;10.48;7.50;;;1.50;99.90;;;;;;5061702;28;20123;-89
2023/01/22 10:32:22;;;;;;;9.55;7.53;;;1.60;99.90;;;;;;5056801;28;20056;-90
2023/01/22 10:35:18;;;;;;;11.50;8.40;;;1.60;99.90;;;;;;5023995;28;20152;-90
2023/01/22 10:37:50;;;;;;;11.23;7.32;;;1.60;99.90;;;;;;5068438;28;20119;-90
2023/01/22 10:40:33;;;;;;;13.13;8.15;;;1.70;99.90;;;;;;5052267;28;20042;-90
2023/01/22 10:43:08;;;;;;;12.10;7.90;;;1.70;99.90;;;;;;5068660;28;20453;-90
2023/01/22 10:45:34;;;;;;;12.73;8.23;;;1.60;99.90;;;;;;5081935;28;20475;-90
2023/01/22 10:48:19;;;;;;;12.27;8.10;;;1.70;99.90;;;;;;5070154;28;20028;-90
2023/01/22 10:50:45;;;;;;;12.15;8.02;;;1.80;99.90;;;;;;5047629;28;20107;-89
2023/01/22 10:53:31;;;;;;;11.25;8.52;;;1.80;99.90;;;;;;5069937;28;20142;-89
2023/01/22 10:55:59;;;;;;;12.85;7.93;;;1.70;99.90;;;;;;5052200;28;20499;-83
2023/01/22 10:58:32;;;;;;;11.18;8.38;;;1.80;99.90;;;;;;5047675;28;20036;-82
2023/01/22 11:01:04;;;;;;;11.30;8.93;;;1.80;99.90;;;;;;5052371;28;20036;-83
2023/01/22 11:03:39;;;;;;;9.48;8.48;;;1.80;99.90;;;;;;5040292;28;20059;-82
2023/01/22 11:06:38;;;;;;;12.10;8.27;;;1.80;99.90;;;;;;5048448;28;20131;-83
2023/01/22 11:09:13;;;;;;;10.48;8.15;;;1.80;99.90;;;;;;5032173;28;20056;-83
2023/01/22 11:11:46;;;;;;;12.45;8.77;;;1.90;99.90;;;;;;5050797;28;20044;-82
2023/01/22 11:14:29;;;;;;;10.43;7.85;;;1.90;99.90;;;;;;5039777;28;20057;-83
2023/01/22 11:17:02;;;;;;;10.82;8.32;;;2.00;99.90;;;;;;5060933;28;20045;-83
2023/01/22 11:19:38;;;;;;;11.50;8.50;;;2.00;99.90;;;;;;5049184;28;20426;-83
2023/01/22 11:22:16;;;;;;;13.93;9.18;;;2.00;99.90;;;;;;5049581;28;20039;-82
2023/01/22 11:24:51;;;;;;;11.15;8.27;;;2.10;99.90;;;;;;5060186;28;20043;-82
2023/01/22 11:27:18;;;;;;;12.48;8.77;;;2.00;99.90;;;;;;5046234;28;20150;-83
2023/01/22 11:29:58;;;;;;;16.02;9.27;;;2.00;99.90;;;;;;5044460;28;20041;-82
2023/01/22 11:32:50;;;;;;;12.95;8.32;;;2.10;99.90;;;;;;5043428;28;20051;-82
2023/01/22 11:35:19;;;;;;;13.57;8.68;;;2.00;99.90;;;;;;5044100;28;20036;-82
2023/01/22 11:38:09;;;;;;;15.85;9.18;;;2.00;99.90;;;;;;5048054;28;20592;-82
2023/01/22 11:40:53;;;;;;;13.98;8.32;;;2.10;99.90;;;;;;5069314;28;20167;-82
2023/01/22 11:43:40;;;;;;;14.43;8.98;;;2.10;99.90;;;;;;5076701;28;20032;-82
2023/01/22 11:46:34;;;;;;;12.65;8.55;;;2.20;99.90;;;;;;5063793;28;20070;-82
2023/01/22 11:49:28;;;;;;;11.82;8.77;;;2.20;99.90;;;;;;5042631;28;20047;-82
2023/01/22 11:52:12;;;;;;;10.75;8.32;;;2.10;99.90;;;;;;5027557;28;20083;-82
2023/01/22 11:55:06;;;;;;;14.20;8.48;;;2.10;99.90;;;;;;5028749;28;20048;-82
2023/01/22 11:57:42;;;;;;;10.95;8.38;;;2.30;99.90;;;;;;5025418;28;20047;-82
2023/01/22 12:00:45;;;;;;;12.23;7.88;;;2.30;99.90;;;;;;5042285;28;20040;-83
2023/01/22 12:03:19;;;;;;;12.88;8.65;;;2.40;99.90;;;;;;5059306;28;20040;-81
2023/01/22 12:06:22;;;;;;;12.23;8.75;;;2.10;99.90;;;;;;5024864;28;20132;-83
2023/01/22 12:09:15;;;;;;;11.20;7.88;;;2.20;99.90;;;;;;5036273;28;20041;-83
2023/01/22 12:11:46;;;;;;;12.45;8.75;;;2.40;99.90;;;;;;5031835;28;20064;-83
2023/01/22 12:14:32;;;;;;;11.40;8.00;;;2.40;99.90;;;;;;5031557;28;20593;-83
2023/01/22 12:17:03;;;;;;;11.15;8.15;;;2.40;99.90;;;;;;5061208;28;20131;-83
2023/01/22 12:20:04;;;;;;;12.15;7.72;;;2.50;99.90;;;;;;5078589;28;20036;-83
2023/01/22 12:23:06;;;;;;;12.63;8.27;;;2.60;99.90;;;;;;5068693;28;20053;-83
2023/01/22 12:25:44;;;;;;;12.13;7.45;;;2.50;99.90;;;;;;5064981;28;20122;-83
2023/01/22 12:28:15;;;;;;;14.90;8.00;;;2.50;99.90;;;;;;5060223;28;20526;-84
2023/01/22 12:31:04;;;;;;;12.50;7.60;;;2.40;99.90;;;;;;5109191;27;20083;-83
2023/01/22 12:33:37;;;;;;;10.15;7.45;;;2.40;99.90;;;;;;5082511;28;20066;-83
2023/01/22 12:36:06;;;;;;;11.27;7.47;;;2.50;99.90;;;;;;5098686;27;20046;-84
2023/01/22 12:38:56;;;;;;;10.88;8.00;;;2.40;99.90;;;;;;5079316;28;20527;-83
2023/01/22 12:41:38;;;;;;;14.02;7.45;;;2.50;99.90;;;;;;5065815;28;20577;-84
2023/01/22 12:44:40;;;;;;;11.98;7.78;;;2.40;99.90;;;;;;5078841;28;20044;-84
2023/01/22 12:47:35;;;;;;;14.20;7.90;;;2.50;99.90;;;;;;5080837;28;20052;-84
2023/01/22 12:50:16;;;;;;;13.20;7.93;;;2.40;99.90;;;;;;5102695;27;20612;-84
2023/01/22 12:52:42;;;;;;;12.93;7.82;;;2.50;99.90;;;;;;5044685;28;20109;-84
2023/01/22 12:55:40;;;;;;;12.23;8.07;;;2.50;99.90;;;;;;5077575;28;20431;-84
2023/01/22 12:58:21;;;;;;;11.10;7.97;;;2.50;99.90;;;;;;5069378;28;20040;-84
2023/01/22 13:00:59;;;;;;;12.77;7.63;;;2.40;99.90;;;;;;5080340;28;20364;-85
2023/01/22 13:03:27;;;;;;;9.38;7.13;;;2.50;99.90;;;;;;5061297;28;20336;-84
2023/01/22 13:05:54;;;;;;;12.95;8.15;;;2.50;99.90;;;;;;5062994;28;20082;-84
2023/01/22 13:08:33;;;;;;;12.77;8.20;;;2.40;99.90;;;;;;5110030;27;20044;-84